createdAt,value
2019-03-16T00:00:36.401Z,1.40
2019-03-16T00:03:04.834Z,1.60
2019-03-16T00:05:33.254Z,1.85
2019-03-16T00:08:01.680Z,1.47
2019-03-16T00:10:30.121Z,1.60
2019-03-16T00:12:58.553Z,1.75
2019-03-16T00:15:26.983Z,2.15
2019-03-16T00:17:56.588Z,1.75
2019-03-16T00:20:25.025Z,1.77
2019-03-16T00:22:53.462Z,1.40
2019-03-16T00:25:22.039Z,1.50
2019-03-16T00:27:50.473Z,1.45
2019-03-16T00:30:18.901Z,1.60
2019-03-16T00:32:47.341Z,2.02
2019-03-16T00:35:15.763Z,1.47
2019-03-16T00:37:44.657Z,1.80
2019-03-16T00:40:13.459Z,1.92
2019-03-16T00:42:41.877Z,1.98
2019-03-16T00:45:11.078Z,1.72
2019-03-16T00:47:39.509Z,1.87
2019-03-16T00:50:09.405Z,2.05
2019-03-16T00:52:37.878Z,1.40
2019-03-16T00:55:07.155Z,1.75
2019-03-16T00:57:35.585Z,1.22
2019-03-16T01:00:08.747Z,1.72
2019-03-16T01:02:37.217Z,1.60
2019-03-16T01:05:06.405Z,1.30
2019-03-16T01:07:34.834Z,1.75
2019-03-16T01:10:04.134Z,1.65
2019-03-16T01:12:32.559Z,1.80
2019-03-16T01:15:01.182Z,1.70
2019-03-16T01:17:29.601Z,1.80
2019-03-16T01:19:58.029Z,1.50
2019-03-16T01:22:26.466Z,1.87
2019-03-16T01:24:54.899Z,2.37
2019-03-16T01:27:23.335Z,1.98
2019-03-16T01:29:51.764Z,2.17
2019-03-16T01:32:20.183Z,2.27
2019-03-16T01:34:48.608Z,2.00
2019-03-16T01:37:17.044Z,1.02
2019-03-16T01:39:45.478Z,2.22
2019-03-16T01:42:13.925Z,1.70
2019-03-16T01:44:42.345Z,1.87
2019-03-16T01:47:10.770Z,2.12
2019-03-16T01:49:39.280Z,2.65
2019-03-16T01:52:07.710Z,1.90
2019-03-16T01:54:36.159Z,2.40
2019-03-16T01:57:04.566Z,1.52
2019-03-16T01:59:33.006Z,2.15
2019-03-16T02:02:01.441Z,1.87
2019-03-16T02:04:29.869Z,1.82
2019-03-16T02:06:58.309Z,2.42
2019-03-16T02:09:26.738Z,2.37
2019-03-16T02:11:55.181Z,2.17
2019-03-16T02:14:23.628Z,2.00
2019-03-16T02:16:52.244Z,2.42
2019-03-16T02:19:20.682Z,2.22
2019-03-16T02:21:49.156Z,2.02
2019-03-16T02:24:17.718Z,3.10
2019-03-16T02:26:46.163Z,2.00
2019-03-16T02:29:14.589Z,2.90
2019-03-16T02:31:43.018Z,2.33
2019-03-16T02:34:11.450Z,2.15
2019-03-16T02:36:41.413Z,2.67
2019-03-16T02:39:09.859Z,3.20
2019-03-16T02:41:38.290Z,2.58
2019-03-16T02:44:10.843Z,2.65
2019-03-16T02:46:36.852Z,3.25
2019-03-16T02:49:05.282Z,2.72
2019-03-16T02:51:33.706Z,2.87
2019-03-16T02:54:02.218Z,2.80
2019-03-16T02:56:30.641Z,2.98
2019-03-16T02:58:59.084Z,3.37
2019-03-16T03:01:27.508Z,2.85
2019-03-16T03:03:55.942Z,2.87
2019-03-16T03:06:24.381Z,2.45
2019-03-16T03:08:52.824Z,2.20
2019-03-16T03:11:21.267Z,3.12
2019-03-16T03:13:49.839Z,2.33
2019-03-16T03:16:18.734Z,1.90
2019-03-16T03:18:49.551Z,2.72
2019-03-16T03:21:17.333Z,2.15
2019-03-16T03:23:45.750Z,2.02
2019-03-16T03:26:14.182Z,2.47
2019-03-16T03:28:42.617Z,2.85
2019-03-16T03:31:11.056Z,2.00
2019-03-16T03:33:58.733Z,2.60
2019-03-16T03:36:09.626Z,1.57
2019-03-16T03:38:38.238Z,1.87
2019-03-16T03:41:07.213Z,3.05
2019-03-16T03:43:35.709Z,2.02
2019-03-16T03:46:04.213Z,2.30
2019-03-16T03:48:32.722Z,1.82
2019-03-16T03:51:01.150Z,1.90
2019-03-16T03:53:29.581Z,1.92
2019-03-16T03:55:58.020Z,2.00
2019-03-16T03:58:26.451Z,2.08
2019-03-16T04:00:54.865Z,1.72
2019-03-16T04:03:23.294Z,2.20
2019-03-16T04:05:51.715Z,1.95
2019-03-16T04:08:20.141Z,2.30
2019-03-16T04:10:48.557Z,2.35
2019-03-16T04:13:16.994Z,2.50
2019-03-16T04:15:45.428Z,3.45
2019-03-16T04:18:13.929Z,1.65
2019-03-16T04:20:42.354Z,1.30
2019-03-16T04:23:10.781Z,2.22
2019-03-16T04:25:39.263Z,3.00
2019-03-16T04:28:08.014Z,2.10
2019-03-16T04:30:36.441Z,1.32
2019-03-16T04:33:04.942Z,2.20
2019-03-16T04:35:33.369Z,2.02
2019-03-16T04:38:01.803Z,1.87
2019-03-16T04:40:30.231Z,1.90
2019-03-16T04:42:59.721Z,1.70
2019-03-16T04:45:28.141Z,2.47
2019-03-16T04:47:56.795Z,2.72
2019-03-16T04:50:25.229Z,2.27
2019-03-16T04:52:53.661Z,2.55
2019-03-16T04:55:22.230Z,1.82
2019-03-16T04:57:50.662Z,1.87
2019-03-16T05:00:19.088Z,1.85
2019-03-16T05:02:47.519Z,1.90
2019-03-16T05:05:15.951Z,2.33
2019-03-16T05:07:44.391Z,2.83
2019-03-16T05:10:12.985Z,3.25
2019-03-16T05:12:41.427Z,2.80
2019-03-16T05:15:09.921Z,2.83
2019-03-16T05:17:38.352Z,3.10
2019-03-16T05:20:08.362Z,2.55
2019-03-16T05:22:36.784Z,2.50
2019-03-16T05:25:06.685Z,2.45
2019-03-16T05:27:35.113Z,3.15
2019-03-16T05:30:04.915Z,2.62
2019-03-16T05:32:33.340Z,3.62
2019-03-16T05:35:01.766Z,2.87
2019-03-16T05:37:30.198Z,2.72
2019-03-16T05:39:58.626Z,3.42
2019-03-16T05:42:27.061Z,2.87
2019-03-16T05:44:55.492Z,4.28
2019-03-16T05:47:23.938Z,3.33
2019-03-16T05:49:52.372Z,3.35
2019-03-16T05:52:20.978Z,3.72
2019-03-16T05:54:49.401Z,3.08
2019-03-16T05:57:17.834Z,3.45
2019-03-16T05:59:46.261Z,3.90
2019-03-16T06:02:14.696Z,3.72
2019-03-16T06:04:43.273Z,3.77
2019-03-16T06:07:11.699Z,3.95
2019-03-16T06:09:40.309Z,3.75
2019-03-16T06:12:08.739Z,4.12
2019-03-16T06:14:38.326Z,3.55
2019-03-16T06:17:06.757Z,4.03
2019-03-16T06:19:35.188Z,3.60
2019-03-16T06:22:03.695Z,4.12
2019-03-16T06:24:32.114Z,3.87
2019-03-16T06:27:00.553Z,4.53
2019-03-16T06:29:29.162Z,4.72
2019-03-16T06:31:57.592Z,4.45
2019-03-16T06:34:26.234Z,4.92
2019-03-16T06:36:54.667Z,5.30
2019-03-16T06:39:23.323Z,5.20
2019-03-16T06:41:51.750Z,4.25
2019-03-16T06:44:20.656Z,5.87
2019-03-16T06:46:49.088Z,3.67
2019-03-16T06:49:17.510Z,5.50
2019-03-16T06:51:45.956Z,6.45
2019-03-16T06:54:14.373Z,7.53
2019-03-16T06:56:42.805Z,2.98
2019-03-16T06:59:11.233Z,6.53
2019-03-16T07:01:39.674Z,4.90
2019-03-16T07:04:08.102Z,5.20
2019-03-16T07:06:36.537Z,3.67
2019-03-16T07:09:06.241Z,5.80
2019-03-16T07:11:34.729Z,6.50
2019-03-16T07:14:03.353Z,7.00
2019-03-16T07:16:31.781Z,5.15
2019-03-16T07:19:00.227Z,5.15
2019-03-16T07:21:28.657Z,3.50
2019-03-16T07:23:57.085Z,6.15
2019-03-16T07:26:25.534Z,5.65
2019-03-16T07:28:53.965Z,4.65
2019-03-16T07:31:22.618Z,4.75
2019-03-16T07:33:51.047Z,6.37
2019-03-16T07:36:19.693Z,3.92
2019-03-16T07:38:48.134Z,3.80
2019-03-16T07:41:16.566Z,4.42
2019-03-16T07:43:46.073Z,4.47
2019-03-16T07:46:14.509Z,4.60
2019-03-16T07:48:43.102Z,4.50
2019-03-16T07:51:11.534Z,3.52
2019-03-16T07:53:39.967Z,6.78
2019-03-16T07:56:08.565Z,5.22
2019-03-16T07:58:37.001Z,4.87
2019-03-16T08:01:05.622Z,2.95
2019-03-16T08:03:34.059Z,5.33
2019-03-16T08:06:02.671Z,4.67
2019-03-16T08:08:31.109Z,3.95
2019-03-16T08:10:59.710Z,4.62
2019-03-16T08:13:28.151Z,4.22
2019-03-16T08:15:56.790Z,4.45
2019-03-16T08:18:25.230Z,5.15
2019-03-16T08:20:53.661Z,4.60
2019-03-16T08:23:22.085Z,4.95
2019-03-16T08:25:50.605Z,2.22
2019-03-16T08:28:19.036Z,3.92
2019-03-16T08:30:47.457Z,3.90
2019-03-16T08:33:15.896Z,4.08
2019-03-16T08:35:45.306Z,3.72
2019-03-16T08:38:13.729Z,2.60
2019-03-16T08:40:42.175Z,3.55
2019-03-16T08:43:10.597Z,4.25
2019-03-16T08:45:39.038Z,2.02
2019-03-16T08:48:07.539Z,3.58
2019-03-16T08:50:35.978Z,4.67
2019-03-16T08:53:04.406Z,3.22
2019-03-16T08:55:32.842Z,2.62
2019-03-16T08:58:06.077Z,1.95
2019-03-16T09:00:31.386Z,4.35
2019-03-16T09:02:59.816Z,4.92
2019-03-16T09:05:28.263Z,3.95
2019-03-16T09:07:56.694Z,2.27
2019-03-16T09:10:25.129Z,3.90
2019-03-16T09:12:55.167Z,5.28
2019-03-16T09:15:23.677Z,5.87
2019-03-16T09:17:52.102Z,3.08
2019-03-16T09:20:20.533Z,2.72
2019-03-16T09:22:48.963Z,3.02
2019-03-16T09:25:17.393Z,4.80
2019-03-16T09:27:45.827Z,4.08
2019-03-16T09:30:17.289Z,3.92
2019-03-16T09:35:15.066Z,3.35
2019-03-16T09:37:43.494Z,1.52
2019-03-16T09:40:12.228Z,3.47
2019-03-16T09:42:42.005Z,2.95
2019-03-16T09:45:11.201Z,1.80
2019-03-16T09:47:39.667Z,3.75
2019-03-16T09:50:08.815Z,2.98
2019-03-16T09:52:37.244Z,2.90
2019-03-16T09:55:12.395Z,2.05
2019-03-16T09:57:40.898Z,2.90
2019-03-16T10:00:10.993Z,2.27
2019-03-16T10:02:39.438Z,2.35
2019-03-16T10:05:10.252Z,3.22
2019-03-16T10:07:39.253Z,3.70
2019-03-16T10:10:12.442Z,2.40
2019-03-16T10:12:40.870Z,2.35
2019-03-16T10:15:12.790Z,2.72
2019-03-16T10:17:41.292Z,3.60
2019-03-16T10:20:10.602Z,1.60
2019-03-16T10:22:39.106Z,2.95
2019-03-16T10:25:08.312Z,2.62
2019-03-16T10:27:36.744Z,1.77
2019-03-16T10:30:17.019Z,2.85
2019-03-16T10:32:51.333Z,3.17
2019-03-16T10:35:30.464Z,1.90
2019-03-16T10:38:05.140Z,1.98
2019-03-16T10:40:44.554Z,2.00
2019-03-16T10:43:28.819Z,2.00
2019-03-16T10:46:08.447Z,2.37
2019-03-16T10:48:41.635Z,1.77
2019-03-16T10:51:16.242Z,1.87
2019-03-16T10:53:44.672Z,2.52
2019-03-16T10:56:14.295Z,1.55
2019-03-16T10:58:42.718Z,1.60
2019-03-16T11:01:11.137Z,2.58
2019-03-16T11:03:41.193Z,2.02
2019-03-16T11:06:15.177Z,1.85
2019-03-16T11:08:48.480Z,3.08
2019-03-16T11:11:16.906Z,1.32
2019-03-16T11:13:45.335Z,1.45
2019-03-16T11:16:13.759Z,2.92
2019-03-16T11:18:43.159Z,2.60
2019-03-16T11:21:19.751Z,1.62
2019-03-16T11:23:49.793Z,1.85
2019-03-16T11:26:18.529Z,1.67
2019-03-16T11:28:46.950Z,1.37
2019-03-16T11:31:15.373Z,1.75
2019-03-16T11:33:43.802Z,2.17
2019-03-16T11:36:12.216Z,2.30
2019-03-16T11:38:41.962Z,3.27
2019-03-16T11:41:11.056Z,2.27
2019-03-16T11:43:39.481Z,1.47
2019-03-16T11:46:07.925Z,2.72
2019-03-16T11:48:36.362Z,2.35
2019-03-16T11:51:06.395Z,2.08
2019-03-16T11:53:34.820Z,1.87
2019-03-16T11:56:03.261Z,2.05
2019-03-16T11:58:31.702Z,1.22
2019-03-16T12:01:00.131Z,1.30
2019-03-16T12:03:30.046Z,2.12
2019-03-16T12:05:58.461Z,0.95
2019-03-16T12:08:26.920Z,2.08
2019-03-16T12:10:55.337Z,1.65
2019-03-16T12:13:23.964Z,1.82
2019-03-16T12:15:52.393Z,1.45
2019-03-16T12:18:20.922Z,1.20
2019-03-16T12:20:52.424Z,1.60
2019-03-16T12:25:48.437Z,1.60
2019-03-16T12:28:18.421Z,1.85
2019-03-16T12:30:46.838Z,1.52
2019-03-16T12:33:15.262Z,2.25
2019-03-16T12:35:44.761Z,1.17
2019-03-16T12:38:13.188Z,1.47
2019-03-16T12:40:41.614Z,1.12
2019-03-16T12:43:10.041Z,0.65
2019-03-16T12:45:38.476Z,1.00
2019-03-16T12:48:06.912Z,1.07
2019-03-16T12:50:36.928Z,1.37
2019-03-16T12:53:05.353Z,1.10
2019-03-16T12:55:33.781Z,0.88
2019-03-16T12:58:02.213Z,1.07
2019-03-16T13:00:30.714Z,1.27
2019-03-16T13:02:59.154Z,1.42
2019-03-16T13:05:27.571Z,0.60
2019-03-16T13:07:56.018Z,1.00
2019-03-16T13:10:29.205Z,0.95
2019-03-16T13:12:57.399Z,0.72
2019-03-16T13:15:25.903Z,0.88
2019-03-16T13:17:54.572Z,0.80
2019-03-16T13:20:26.014Z,1.17
2019-03-16T13:22:55.015Z,1.05
2019-03-16T13:25:23.717Z,1.05
2019-03-16T13:27:53.573Z,1.17
2019-03-16T13:30:21.998Z,0.85
2019-03-16T13:32:50.426Z,1.50
2019-03-16T13:35:18.858Z,0.70
2019-03-16T13:37:47.367Z,1.10
2019-03-16T13:40:17.901Z,0.68
2019-03-16T13:42:46.994Z,0.90
2019-03-16T13:45:17.017Z,0.98
2019-03-16T13:47:45.456Z,0.62
2019-03-16T13:50:16.581Z,1.10
2019-03-16T13:52:45.703Z,1.25
2019-03-16T13:55:22.766Z,1.00
2019-03-16T13:57:58.419Z,1.40
2019-03-16T14:00:26.903Z,0.93
2019-03-16T14:02:55.326Z,1.75
2019-03-16T14:05:23.843Z,1.32
2019-03-16T14:07:52.344Z,1.12
2019-03-16T14:10:22.712Z,0.60
2019-03-16T14:12:51.461Z,1.40
2019-03-16T14:15:19.889Z,1.05
2019-03-16T14:17:54.288Z,1.50
2019-03-16T14:20:24.078Z,1.98
2019-03-16T14:22:53.344Z,0.93
2019-03-16T14:25:22.850Z,0.70
2019-03-16T14:27:53.631Z,0.93
2019-03-16T14:30:39.399Z,1.05
2019-03-16T14:32:55.817Z,1.07
2019-03-16T14:35:24.270Z,0.98
2019-03-16T14:37:52.750Z,1.10
2019-03-16T14:40:21.309Z,0.90
2019-03-16T14:42:49.858Z,1.57
2019-03-16T14:45:20.857Z,0.82
2019-03-16T14:47:49.283Z,1.32
2019-03-16T14:50:18.476Z,1.27
2019-03-16T14:52:46.907Z,1.20
2019-03-16T14:55:15.501Z,0.85
2019-03-16T14:57:46.362Z,0.98
2019-03-16T15:00:19.069Z,1.75
2019-03-16T15:02:47.506Z,2.12
2019-03-16T15:05:15.957Z,1.00
2019-03-16T15:07:49.754Z,1.32
2019-03-16T15:10:19.037Z,0.90
2019-03-16T15:12:47.458Z,1.27
2019-03-16T15:15:17.431Z,1.12
2019-03-16T15:17:45.855Z,1.12
2019-03-16T15:20:14.281Z,1.20
2019-03-16T15:22:42.786Z,1.57
2019-03-16T15:25:11.774Z,1.27
2019-03-16T15:27:40.287Z,1.05
2019-03-16T15:30:16.187Z,1.52
2019-03-16T15:32:44.610Z,0.80
2019-03-16T15:35:13.216Z,1.17
2019-03-16T15:37:41.899Z,1.40
2019-03-16T15:40:13.136Z,1.60
2019-03-16T15:42:41.578Z,1.32
2019-03-16T15:45:12.708Z,2.20
2019-03-16T15:47:41.140Z,1.27
2019-03-16T15:50:09.636Z,1.30
2019-03-16T15:52:38.174Z,1.47
2019-03-16T15:55:07.348Z,1.98
2019-03-16T15:57:36.909Z,1.30
2019-03-16T16:00:06.810Z,1.80
2019-03-16T16:02:36.215Z,1.20
2019-03-16T16:05:05.834Z,1.70
2019-03-16T16:07:35.437Z,1.70
2019-03-16T16:10:11.720Z,1.70
2019-03-16T16:12:40.162Z,2.27
2019-03-16T16:15:09.359Z,2.67
2019-03-16T16:17:40.334Z,1.62
2019-03-16T16:20:12.278Z,1.40
2019-03-16T16:22:40.707Z,2.62
2019-03-16T16:25:10.371Z,2.92
2019-03-16T16:27:38.949Z,1.92
2019-03-16T16:30:10.102Z,1.57
2019-03-16T16:32:38.531Z,2.47
2019-03-16T16:35:08.039Z,1.67
2019-03-16T16:37:36.452Z,1.62
2019-03-16T16:40:06.413Z,1.95
2019-03-16T16:42:34.848Z,2.27
2019-03-16T16:45:03.738Z,2.52
2019-03-16T16:47:32.246Z,3.05
2019-03-16T16:50:00.664Z,2.27
2019-03-16T16:52:29.085Z,1.42
2019-03-16T16:54:57.637Z,2.42
2019-03-16T16:57:26.071Z,2.45
2019-03-16T16:59:54.497Z,1.50
2019-03-16T17:02:23.079Z,1.85
2019-03-16T17:04:51.521Z,2.55
2019-03-16T17:07:19.954Z,2.47
2019-03-16T17:09:48.390Z,2.10
2019-03-16T17:12:16.820Z,2.58
2019-03-16T17:14:45.253Z,2.70
2019-03-16T17:17:13.692Z,2.12
2019-03-16T17:19:42.116Z,2.65
2019-03-16T17:22:10.545Z,2.80
2019-03-16T17:24:38.976Z,1.22
2019-03-16T17:27:07.465Z,2.22
2019-03-16T17:29:38.053Z,3.70
2019-03-16T17:32:06.482Z,3.00
2019-03-16T17:34:35.085Z,3.05
2019-03-16T17:37:03.501Z,3.37
2019-03-16T17:39:31.934Z,1.65
2019-03-16T17:42:00.359Z,3.22
2019-03-16T17:44:29.866Z,3.72
2019-03-16T17:46:58.567Z,3.52
2019-03-16T17:49:27.187Z,4.22
2019-03-16T17:51:57.988Z,6.50
2019-03-16T17:54:25.782Z,5.10
2019-03-16T17:56:54.216Z,3.92
2019-03-16T17:59:24.015Z,4.47
2019-03-16T18:01:54.913Z,6.25
2019-03-16T18:04:23.042Z,2.83
2019-03-16T18:06:51.467Z,4.58
2019-03-16T18:09:19.908Z,4.72
2019-03-16T18:11:48.347Z,6.03
2019-03-16T18:14:16.787Z,4.05
2019-03-16T18:16:45.214Z,5.28
2019-03-16T18:19:13.641Z,5.60
2019-03-16T18:21:42.106Z,3.25
2019-03-16T18:24:10.537Z,4.90
2019-03-16T18:26:38.971Z,3.22
2019-03-16T18:29:07.405Z,6.15
2019-03-16T18:31:36.049Z,3.25
2019-03-16T18:34:04.486Z,4.17
2019-03-16T18:36:33.102Z,4.45
2019-03-16T18:39:01.536Z,4.90
2019-03-16T18:41:30.538Z,3.75
2019-03-16T18:43:59.156Z,4.37
2019-03-16T18:46:27.594Z,1.82
2019-03-16T18:48:56.020Z,4.17
2019-03-16T18:51:24.782Z,3.60
2019-03-16T18:53:53.217Z,3.77
2019-03-16T18:56:21.642Z,3.75
2019-03-16T18:58:50.079Z,4.37
2019-03-16T19:01:18.528Z,3.15
2019-03-16T19:03:46.926Z,3.72
2019-03-16T19:06:15.360Z,3.80
2019-03-16T19:08:43.785Z,2.30
2019-03-16T19:11:12.269Z,3.20
2019-03-16T19:13:41.005Z,2.17
2019-03-16T19:16:10.961Z,2.90
2019-03-16T19:18:39.529Z,2.55
2019-03-16T19:21:07.948Z,2.20
2019-03-16T19:23:36.398Z,3.30
2019-03-16T19:26:04.889Z,3.58
2019-03-16T19:28:33.369Z,2.58
2019-03-16T19:31:01.807Z,2.85
2019-03-16T19:33:30.435Z,3.72
2019-03-16T19:35:58.855Z,2.17
2019-03-16T19:38:27.302Z,3.40
2019-03-16T19:40:55.721Z,3.55
2019-03-16T19:43:24.225Z,3.50
2019-03-16T19:45:52.658Z,2.47
2019-03-16T19:48:21.069Z,3.35
2019-03-16T19:50:49.511Z,4.12
2019-03-16T19:53:18.009Z,2.35
2019-03-16T19:55:46.442Z,4.05
2019-03-16T19:58:14.874Z,3.72
2019-03-16T20:00:43.469Z,3.17
2019-03-16T20:03:11.910Z,4.30
2019-03-16T20:05:40.330Z,2.80
2019-03-16T20:08:08.970Z,4.03
2019-03-16T20:10:37.630Z,3.87
2019-03-16T20:13:06.057Z,3.60
2019-03-16T20:15:34.482Z,3.12
2019-03-16T20:18:05.239Z,1.95
2019-03-16T20:20:33.662Z,1.87
2019-03-16T20:23:02.272Z,1.87
2019-03-16T20:25:30.685Z,4.00
2019-03-16T20:27:59.129Z,3.95
2019-03-16T20:30:29.777Z,2.77
2019-03-16T20:33:03.979Z,3.42
2019-03-16T20:35:28.341Z,3.60
2019-03-16T20:37:56.756Z,3.52
2019-03-16T20:40:25.197Z,4.30
2019-03-16T20:42:53.614Z,4.12
2019-03-16T20:45:22.148Z,4.83
2019-03-16T20:47:50.764Z,5.22
2019-03-16T20:50:19.633Z,3.87
2019-03-16T20:52:48.070Z,3.02
2019-03-16T20:55:16.519Z,4.22
2019-03-16T20:57:45.026Z,4.15
2019-03-16T21:00:15.006Z,2.95
2019-03-16T21:02:43.439Z,5.08
2019-03-16T21:05:12.058Z,3.52
2019-03-16T21:07:40.481Z,4.10
2019-03-16T21:10:09.982Z,4.60
2019-03-16T21:12:39.382Z,4.70
2019-03-16T21:15:14.692Z,5.53
2019-03-16T21:17:43.145Z,1.62
2019-03-16T21:20:17.942Z,3.80
2019-03-16T21:22:46.358Z,4.47
2019-03-16T21:25:15.292Z,5.12
2019-03-16T21:27:43.722Z,3.87
2019-03-16T21:30:13.701Z,2.80
2019-03-16T21:32:42.137Z,4.42
2019-03-16T21:35:10.694Z,3.67
2019-03-16T21:37:39.196Z,4.47
2019-03-16T21:40:09.202Z,4.95
2019-03-16T21:42:37.642Z,4.60
2019-03-16T21:45:07.924Z,3.47
2019-03-16T21:47:36.348Z,2.62
2019-03-16T21:50:06.142Z,3.75
2019-03-16T21:52:34.583Z,5.22
2019-03-16T21:55:03.569Z,3.83
2019-03-16T21:57:32.121Z,3.65
2019-03-16T22:00:00.717Z,3.45
2019-03-16T22:02:29.305Z,3.95
2019-03-16T22:04:57.739Z,3.42
2019-03-16T22:07:29.957Z,4.03
2019-03-16T22:09:58.403Z,3.98
2019-03-16T22:12:26.846Z,5.30
2019-03-16T22:14:55.289Z,2.70
2019-03-16T22:17:25.127Z,3.12
2019-03-16T22:19:53.574Z,3.08
2019-03-16T22:22:22.009Z,3.67
2019-03-16T22:24:50.447Z,3.62
2019-03-16T22:27:18.875Z,4.55
2019-03-16T22:29:47.573Z,2.50
2019-03-16T22:32:16.011Z,2.25
2019-03-16T22:34:44.457Z,3.70
2019-03-16T22:37:12.887Z,3.72
2019-03-16T22:39:41.312Z,2.72
2019-03-16T22:42:09.749Z,3.67
2019-03-16T22:44:38.192Z,3.02
2019-03-16T22:47:06.617Z,4.67
2019-03-16T22:49:35.267Z,2.67
2019-03-16T22:52:03.768Z,3.50
2019-03-16T22:54:32.201Z,3.12
2019-03-16T22:57:00.632Z,3.77
2019-03-16T22:59:29.066Z,3.95
2019-03-16T23:01:57.497Z,4.47
2019-03-16T23:04:25.937Z,4.15
2019-03-16T23:06:54.386Z,4.12
2019-03-16T23:09:22.877Z,5.15
2019-03-16T23:11:51.313Z,4.22
2019-03-16T23:14:19.732Z,5.83
2019-03-16T23:16:48.181Z,3.98
2019-03-16T23:19:17.981Z,5.33
2019-03-16T23:21:46.419Z,5.55
2019-03-16T23:24:14.988Z,2.70
2019-03-16T23:26:43.701Z,6.10
2019-03-16T23:29:13.331Z,4.65
2019-03-16T23:31:41.928Z,3.50
2019-03-16T23:34:19.060Z,4.60
2019-03-16T23:36:40.846Z,3.05
2019-03-16T23:39:09.329Z,5.85
2019-03-16T23:41:38.850Z,5.70
2019-03-16T23:44:07.274Z,2.65
2019-03-16T23:46:35.701Z,3.37
2019-03-16T23:49:04.155Z,2.85
2019-03-16T23:51:32.581Z,5.28
2019-03-16T23:54:01.073Z,5.53
2019-03-16T23:56:29.506Z,3.02
2019-03-16T23:58:57.937Z,4.75
